sensor_id;sensor_type;location;lat;lon;timestamp;P1;durP1;ratioP1;P2;durP2;ratioP2
65896;SDS011;52677;50.898;10.854;2023-02-14T00:01:15;56.33;;;20.92;;
65896;SDS011;52677;50.898;10.854;2023-02-14T00:03:16;27.13;;;14.65;;
65896;SDS011;52677;50.898;10.854;2023-02-14T00:05:16;30.02;;;14.70;;
65896;SDS011;52677;50.898;10.854;2023-02-14T00:07:17;28.88;;;15.43;;
65896;SDS011;52677;50.898;10.854;2023-02-14T00:09:17;31.17;;;16.17;;
65896;SDS011;52677;50.898;10.854;2023-02-14T00:11:18;31.75;;;17.63;;
65896;SDS011;52677;50.898;10.854;2023-02-14T00:13:19;31.45;;;16.95;;
65896;SDS011;52677;50.898;10.854;2023-02-14T00:15:19;36.03;;;17.92;;
65896;SDS011;52677;50.898;10.854;2023-02-14T00:17:23;32.47;;;16.83;;
65896;SDS011;52677;50.898;10.854;2023-02-14T00:19:24;36.35;;;15.98;;
65896;SDS011;52677;50.898;10.854;2023-02-14T00:21:24;24.80;;;14.07;;
65896;SDS011;52677;50.898;10.854;2023-02-14T00:23:25;31.63;;;15.18;;
65896;SDS011;52677;50.898;10.854;2023-02-14T00:25:25;24.88;;;13.27;;
65896;SDS011;52677;50.898;10.854;2023-02-14T00:27:25;28.88;;;13.38;;
65896;SDS011;52677;50.898;10.854;2023-02-14T00:29:27;23.88;;;13.68;;
65896;SDS011;52677;50.898;10.854;2023-02-14T00:31:28;23.75;;;14.57;;
65896;SDS011;52677;50.898;10.854;2023-02-14T00:33:29;24.80;;;13.48;;
65896;SDS011;52677;50.898;10.854;2023-02-14T00:35:29;23.98;;;13.40;;
65896;SDS011;52677;50.898;10.854;2023-02-14T00:37:29;20.05;;;12.27;;
65896;SDS011;52677;50.898;10.854;2023-02-14T00:39:30;20.77;;;12.55;;
65896;SDS011;52677;50.898;10.854;2023-02-14T00:41:30;20.95;;;12.55;;
65896;SDS011;52677;50.898;10.854;2023-02-14T00:43:31;23.48;;;12.15;;
65896;SDS011;52677;50.898;10.854;2023-02-14T00:45:31;19.60;;;12.38;;
65896;SDS011;52677;50.898;10.854;2023-02-14T00:47:31;19.83;;;12.88;;
65896;SDS011;52677;50.898;10.854;2023-02-14T00:49:32;17.75;;;11.85;;
65896;SDS011;52677;50.898;10.854;2023-02-14T00:51:33;22.30;;;13.15;;
65896;SDS011;52677;50.898;10.854;2023-02-14T00:53:33;18.48;;;11.65;;
65896;SDS011;52677;50.898;10.854;2023-02-14T00:55:33;20.85;;;12.55;;
65896;SDS011;52677;50.898;10.854;2023-02-14T00:57:34;21.55;;;12.50;;
65896;SDS011;52677;50.898;10.854;2023-02-14T00:59:34;19.50;;;12.18;;
65896;SDS011;52677;50.898;10.854;2023-02-14T01:01:35;20.33;;;12.73;;
65896;SDS011;52677;50.898;10.854;2023-02-14T01:03:35;19.88;;;12.98;;
65896;SDS011;52677;50.898;10.854;2023-02-14T01:05:35;24.75;;;14.02;;
65896;SDS011;52677;50.898;10.854;2023-02-14T01:07:36;22.98;;;14.75;;
65896;SDS011;52677;50.898;10.854;2023-02-14T01:09:36;23.77;;;13.88;;
65896;SDS011;52677;50.898;10.854;2023-02-14T01:11:36;27.63;;;14.85;;
65896;SDS011;52677;50.898;10.854;2023-02-14T01:13:38;26.58;;;15.13;;
65896;SDS011;52677;50.898;10.854;2023-02-14T01:15:40;26.15;;;14.57;;
65896;SDS011;52677;50.898;10.854;2023-02-14T01:17:42;23.48;;;14.13;;
65896;SDS011;52677;50.898;10.854;2023-02-14T01:19:42;24.85;;;14.57;;
65896;SDS011;52677;50.898;10.854;2023-02-14T01:21:44;23.38;;;15.48;;
65896;SDS011;52677;50.898;10.854;2023-02-14T01:23:44;23.65;;;13.75;;
65896;SDS011;52677;50.898;10.854;2023-02-14T01:27:47;19.55;;;12.23;;
65896;SDS011;52677;50.898;10.854;2023-02-14T01:29:47;26.42;;;14.30;;
65896;SDS011;52677;50.898;10.854;2023-02-14T01:31:48;24.35;;;13.40;;
65896;SDS011;52677;50.898;10.854;2023-02-14T01:33:48;23.77;;;13.75;;
65896;SDS011;52677;50.898;10.854;2023-02-14T01:35:49;23.00;;;12.75;;
65896;SDS011;52677;50.898;10.854;2023-02-14T01:37:49;23.88;;;13.52;;
65896;SDS011;52677;50.898;10.854;2023-02-14T01:39:50;19.48;;;12.23;;
65896;SDS011;52677;50.898;10.854;2023-02-14T01:41:50;19.23;;;11.52;;
65896;SDS011;52677;50.898;10.854;2023-02-14T01:43:54;23.48;;;12.30;;
65896;SDS011;52677;50.898;10.854;2023-02-14T01:45:55;21.52;;;11.32;;
65896;SDS011;52677;50.898;10.854;2023-02-14T01:47:55;19.33;;;11.07;;
65896;SDS011;52677;50.898;10.854;2023-02-14T01:49:59;17.95;;;10.55;;
65896;SDS011;52677;50.898;10.854;2023-02-14T01:52:09;19.10;;;11.60;;
65896;SDS011;52677;50.898;10.854;2023-02-14T01:54:14;19.35;;;12.18;;
65896;SDS011;52677;50.898;10.854;2023-02-14T01:56:18;16.92;;;11.10;;
65896;SDS011;52677;50.898;10.854;2023-02-14T01:58:24;19.23;;;11.15;;
65896;SDS011;52677;50.898;10.854;2023-02-14T02:00:28;20.08;;;11.63;;
65896;SDS011;52677;50.898;10.854;2023-02-14T02:02:48;17.98;;;10.57;;
65896;SDS011;52677;50.898;10.854;2023-02-14T02:04:49;17.40;;;11.38;;
65896;SDS011;52677;50.898;10.854;2023-02-14T02:06:54;18.38;;;10.10;;
65896;SDS011;52677;50.898;10.854;2023-02-14T02:09:07;18.23;;;10.82;;
65896;SDS011;52677;50.898;10.854;2023-02-14T02:11:13;16.27;;;9.85;;
65896;SDS011;52677;50.898;10.854;2023-02-14T02:13:15;20.40;;;10.73;;
65896;SDS011;52677;50.898;10.854;2023-02-14T02:15:18;17.98;;;10.98;;
65896;SDS011;52677;50.898;10.854;2023-02-14T02:24:52;13.82;;;8.90;;
65896;SDS011;52677;50.898;10.854;2023-02-14T02:36:27;18.30;;;10.18;;
65896;SDS011;52677;50.898;10.854;2023-02-14T02:46:15;14.75;;;9.82;;
65896;SDS011;52677;50.898;10.854;2023-02-14T02:48:33;21.33;;;10.95;;
65896;SDS011;52677;50.898;10.854;2023-02-14T02:50:44;19.40;;;11.52;;
65896;SDS011;52677;50.898;10.854;2023-02-14T02:53:18;18.83;;;11.00;;
65896;SDS011;52677;50.898;10.854;2023-02-14T02:55:27;22.13;;;11.52;;
65896;SDS011;52677;50.898;10.854;2023-02-14T02:57:49;18.30;;;11.63;;
65896;SDS011;52677;50.898;10.854;2023-02-14T03:04:20;19.63;;;10.32;;
65896;SDS011;52677;50.898;10.854;2023-02-14T03:06:40;15.05;;;10.07;;
65896;SDS011;52677;50.898;10.854;2023-02-14T03:08:40;18.08;;;10.77;;
65896;SDS011;52677;50.898;10.854;2023-02-14T03:10:41;20.10;;;10.35;;
65896;SDS011;52677;50.898;10.854;2023-02-14T03:12:45;19.98;;;11.70;;
65896;SDS011;52677;50.898;10.854;2023-02-14T03:17:13;19.20;;;10.68;;
65896;SDS011;52677;50.898;10.854;2023-02-14T03:19:30;21.30;;;10.45;;
65896;SDS011;52677;50.898;10.854;2023-02-14T03:22:04;20.13;;;11.48;;
65896;SDS011;52677;50.898;10.854;2023-02-14T03:24:23;18.52;;;10.70;;
65896;SDS011;52677;50.898;10.854;2023-02-14T03:31:03;18.85;;;10.45;;
65896;SDS011;52677;50.898;10.854;2023-02-14T03:33:35;16.15;;;10.07;;
65896;SDS011;52677;50.898;10.854;2023-02-14T03:40:45;16.92;;;9.98;;
65896;SDS011;52677;50.898;10.854;2023-02-14T03:45:35;17.10;;;10.27;;
65896;SDS011;52677;50.898;10.854;2023-02-14T03:47:40;20.25;;;10.10;;
65896;SDS011;52677;50.898;10.854;2023-02-14T03:49:45;20.67;;;10.90;;
65896;SDS011;52677;50.898;10.854;2023-02-14T03:51:49;16.92;;;9.88;;
65896;SDS011;52677;50.898;10.854;2023-02-14T03:53:55;18.77;;;10.02;;
65896;SDS011;52677;50.898;10.854;2023-02-14T03:58:11;22.08;;;11.02;;
65896;SDS011;52677;50.898;10.854;2023-02-14T04:00:18;16.30;;;9.13;;
65896;SDS011;52677;50.898;10.854;2023-02-14T04:02:22;18.98;;;9.48;;
65896;SDS011;52677;50.898;10.854;2023-02-14T04:04:29;18.30;;;10.18;;
65896;SDS011;52677;50.898;10.854;2023-02-14T04:06:34;20.95;;;10.30;;
65896;SDS011;52677;50.898;10.854;2023-02-14T04:08:35;16.75;;;10.48;;
65896;SDS011;52677;50.898;10.854;2023-02-14T04:10:35;18.60;;;10.10;;
65896;SDS011;52677;50.898;10.854;2023-02-14T04:12:36;20.92;;;10.77;;
65896;SDS011;52677;50.898;10.854;2023-02-14T04:14:37;15.48;;;10.15;;
65896;SDS011;52677;50.898;10.854;2023-02-14T04:16:37;16.20;;;8.85;;
65896;SDS011;52677;50.898;10.854;2023-02-14T04:18:56;19.45;;;9.48;;
65896;SDS011;52677;50.898;10.854;2023-02-14T04:21:15;17.98;;;9.93;;
65896;SDS011;52677;50.898;10.854;2023-02-14T04:23:16;18.00;;;10.10;;
65896;SDS011;52677;50.898;10.854;2023-02-14T04:25:17;14.45;;;8.85;;
65896;SDS011;52677;50.898;10.854;2023-02-14T04:27:18;17.15;;;10.85;;
65896;SDS011;52677;50.898;10.854;2023-02-14T04:29:21;20.40;;;11.13;;
65896;SDS011;52677;50.898;10.854;2023-02-14T04:31:21;19.67;;;10.57;;
65896;SDS011;52677;50.898;10.854;2023-02-14T04:33:22;18.35;;;10.70;;
65896;SDS011;52677;50.898;10.854;2023-02-14T04:35:22;16.63;;;10.25;;
65896;SDS011;52677;50.898;10.854;2023-02-14T04:37:22;18.88;;;10.35;;
65896;SDS011;52677;50.898;10.854;2023-02-14T04:39:23;18.98;;;10.05;;
65896;SDS011;52677;50.898;10.854;2023-02-14T04:41:23;21.27;;;9.85;;
65896;SDS011;52677;50.898;10.854;2023-02-14T04:43:24;18.98;;;10.70;;
65896;SDS011;52677;50.898;10.854;2023-02-14T04:45:24;19.10;;;10.88;;
65896;SDS011;52677;50.898;10.854;2023-02-14T04:47:24;20.20;;;10.10;;
65896;SDS011;52677;50.898;10.854;2023-02-14T04:49:25;24.83;;;11.23;;
65896;SDS011;52677;50.898;10.854;2023-02-14T04:51:25;22.65;;;11.52;;
65896;SDS011;52677;50.898;10.854;2023-02-14T04:53:25;21.80;;;11.38;;
65896;SDS011;52677;50.898;10.854;2023-02-14T04:55:26;19.98;;;11.02;;
65896;SDS011;52677;50.898;10.854;2023-02-14T04:57:26;15.13;;;9.40;;
65896;SDS011;52677;50.898;10.854;2023-02-14T04:59:26;19.08;;;10.38;;
65896;SDS011;52677;50.898;10.854;2023-02-14T05:01:27;18.77;;;10.73;;
65896;SDS011;52677;50.898;10.854;2023-02-14T05:03:27;16.10;;;9.57;;
65896;SDS011;52677;50.898;10.854;2023-02-14T05:05:28;17.27;;;10.10;;
65896;SDS011;52677;50.898;10.854;2023-02-14T05:07:28;17.77;;;10.25;;
65896;SDS011;52677;50.898;10.854;2023-02-14T05:09:28;16.58;;;9.90;;
65896;SDS011;52677;50.898;10.854;2023-02-14T05:11:29;19.77;;;10.25;;
65896;SDS011;52677;50.898;10.854;2023-02-14T05:13:29;18.38;;;9.90;;
65896;SDS011;52677;50.898;10.854;2023-02-14T05:15:31;19.42;;;9.98;;
65896;SDS011;52677;50.898;10.854;2023-02-14T05:17:31;16.23;;;9.93;;
65896;SDS011;52677;50.898;10.854;2023-02-14T05:19:31;22.85;;;10.98;;
65896;SDS011;52677;50.898;10.854;2023-02-14T05:21:32;20.88;;;10.68;;
65896;SDS011;52677;50.898;10.854;2023-02-14T05:23:32;18.38;;;10.30;;
65896;SDS011;52677;50.898;10.854;2023-02-14T05:25:32;23.17;;;11.30;;
65896;SDS011;52677;50.898;10.854;2023-02-14T05:27:33;21.58;;;11.35;;
65896;SDS011;52677;50.898;10.854;2023-02-14T05:29:33;22.95;;;12.23;;
65896;SDS011;52677;50.898;10.854;2023-02-14T05:31:33;25.58;;;12.95;;
65896;SDS011;52677;50.898;10.854;2023-02-14T05:33:34;19.98;;;11.63;;
65896;SDS011;52677;50.898;10.854;2023-02-14T05:35:34;22.77;;;12.48;;
65896;SDS011;52677;50.898;10.854;2023-02-14T05:37:35;21.13;;;11.32;;
65896;SDS011;52677;50.898;10.854;2023-02-14T05:39:35;20.30;;;11.00;;
65896;SDS011;52677;50.898;10.854;2023-02-14T05:41:35;19.40;;;11.73;;
65896;SDS011;52677;50.898;10.854;2023-02-14T05:43:36;23.85;;;13.73;;
65896;SDS011;52677;50.898;10.854;2023-02-14T05:45:36;20.08;;;11.85;;
65896;SDS011;52677;50.898;10.854;2023-02-14T05:47:36;17.88;;;11.05;;
65896;SDS011;52677;50.898;10.854;2023-02-14T05:49:37;18.15;;;12.43;;
65896;SDS011;52677;50.898;10.854;2023-02-14T05:51:38;21.88;;;12.20;;
65896;SDS011;52677;50.898;10.854;2023-02-14T05:53:38;18.98;;;11.73;;
65896;SDS011;52677;50.898;10.854;2023-02-14T05:55:39;19.92;;;11.57;;
65896;SDS011;52677;50.898;10.854;2023-02-14T05:57:39;21.15;;;11.25;;
65896;SDS011;52677;50.898;10.854;2023-02-14T05:59:40;21.33;;;11.57;;
65896;SDS011;52677;50.898;10.854;2023-02-14T06:01:40;20.05;;;11.80;;
65896;SDS011;52677;50.898;10.854;2023-02-14T06:03:41;19.20;;;11.25;;
65896;SDS011;52677;50.898;10.854;2023-02-14T06:05:41;21.67;;;11.23;;
65896;SDS011;52677;50.898;10.854;2023-02-14T06:07:41;20.42;;;11.85;;
65896;SDS011;52677;50.898;10.854;2023-02-14T06:09:42;28.77;;;14.65;;
65896;SDS011;52677;50.898;10.854;2023-02-14T06:11:42;22.40;;;12.52;;
65896;SDS011;52677;50.898;10.854;2023-02-14T06:13:43;26.88;;;15.23;;
65896;SDS011;52677;50.898;10.854;2023-02-14T06:15:43;29.55;;;14.88;;
65896;SDS011;52677;50.898;10.854;2023-02-14T06:17:44;28.08;;;15.13;;
65896;SDS011;52677;50.898;10.854;2023-02-14T06:19:46;34.70;;;16.70;;
65896;SDS011;52677;50.898;10.854;2023-02-14T06:21:46;30.83;;;16.58;;
65896;SDS011;52677;50.898;10.854;2023-02-14T06:23:47;31.00;;;15.73;;
65896;SDS011;52677;50.898;10.854;2023-02-14T06:25:48;39.95;;;18.45;;
65896;SDS011;52677;50.898;10.854;2023-02-14T06:27:48;36.72;;;18.10;;
65896;SDS011;52677;50.898;10.854;2023-02-14T06:29:48;38.42;;;19.98;;
65896;SDS011;52677;50.898;10.854;2023-02-14T06:31:49;38.45;;;20.90;;
65896;SDS011;52677;50.898;10.854;2023-02-14T06:33:50;43.70;;;20.60;;
65896;SDS011;52677;50.898;10.854;2023-02-14T06:35:54;36.53;;;18.73;;
65896;SDS011;52677;50.898;10.854;2023-02-14T06:37:54;39.33;;;20.63;;
65896;SDS011;52677;50.898;10.854;2023-02-14T06:39:55;36.90;;;17.77;;
65896;SDS011;52677;50.898;10.854;2023-02-14T06:41:55;35.17;;;17.83;;
65896;SDS011;52677;50.898;10.854;2023-02-14T06:43:55;35.83;;;18.15;;
65896;SDS011;52677;50.898;10.854;2023-02-14T06:45:56;35.10;;;17.70;;
65896;SDS011;52677;50.898;10.854;2023-02-14T06:47:56;32.55;;;15.50;;
65896;SDS011;52677;50.898;10.854;2023-02-14T06:49:57;39.42;;;20.15;;
65896;SDS011;52677;50.898;10.854;2023-02-14T06:51:58;41.13;;;20.35;;
65896;SDS011;52677;50.898;10.854;2023-02-14T06:53:59;44.83;;;20.40;;
65896;SDS011;52677;50.898;10.854;2023-02-14T06:55:59;36.67;;;18.55;;
65896;SDS011;52677;50.898;10.854;2023-02-14T06:57:59;35.17;;;17.98;;
65896;SDS011;52677;50.898;10.854;2023-02-14T07:00:00;30.00;;;16.33;;
65896;SDS011;52677;50.898;10.854;2023-02-14T07:02:00;34.10;;;15.82;;
65896;SDS011;52677;50.898;10.854;2023-02-14T07:04:00;29.08;;;15.43;;
65896;SDS011;52677;50.898;10.854;2023-02-14T07:06:01;29.38;;;15.18;;
65896;SDS011;52677;50.898;10.854;2023-02-14T07:08:01;26.85;;;13.18;;
65896;SDS011;52677;50.898;10.854;2023-02-14T07:10:02;25.65;;;13.02;;
65896;SDS011;52677;50.898;10.854;2023-02-14T07:12:02;19.60;;;11.90;;
65896;SDS011;52677;50.898;10.854;2023-02-14T07:14:03;21.25;;;11.25;;
65896;SDS011;52677;50.898;10.854;2023-02-14T07:16:03;20.58;;;10.73;;
65896;SDS011;52677;50.898;10.854;2023-02-14T07:18:03;23.35;;;10.88;;
65896;SDS011;52677;50.898;10.854;2023-02-14T07:20:05;21.83;;;11.63;;
65896;SDS011;52677;50.898;10.854;2023-02-14T07:22:07;19.77;;;10.18;;
65896;SDS011;52677;50.898;10.854;2023-02-14T07:24:07;26.35;;;11.35;;
65896;SDS011;52677;50.898;10.854;2023-02-14T07:26:07;19.40;;;10.55;;
65896;SDS011;52677;50.898;10.854;2023-02-14T07:28:08;48.00;;;23.83;;
65896;SDS011;52677;50.898;10.854;2023-02-14T07:30:09;72.68;;;34.15;;
65896;SDS011;52677;50.898;10.854;2023-02-14T07:32:10;111.85;;;46.45;;
65896;SDS011;52677;50.898;10.854;2023-02-14T07:34:10;80.53;;;33.20;;
65896;SDS011;52677;50.898;10.854;2023-02-14T07:36:11;42.45;;;19.98;;
65896;SDS011;52677;50.898;10.854;2023-02-14T07:38:11;23.88;;;12.07;;
65896;SDS011;52677;50.898;10.854;2023-02-14T07:40:12;22.00;;;11.77;;
65896;SDS011;52677;50.898;10.854;2023-02-14T07:42:12;18.35;;;10.77;;
65896;SDS011;52677;50.898;10.854;2023-02-14T07:44:12;21.55;;;10.65;;
65896;SDS011;52677;50.898;10.854;2023-02-14T07:46:13;19.92;;;11.60;;
65896;SDS011;52677;50.898;10.854;2023-02-14T07:48:13;20.55;;;11.70;;
65896;SDS011;52677;50.898;10.854;2023-02-14T07:50:14;28.05;;;13.00;;
65896;SDS011;52677;50.898;10.854;2023-02-14T07:52:15;26.40;;;12.95;;
65896;SDS011;52677;50.898;10.854;2023-02-14T07:54:15;20.85;;;11.45;;
65896;SDS011;52677;50.898;10.854;2023-02-14T07:56:16;21.33;;;10.88;;
65896;SDS011;52677;50.898;10.854;2023-02-14T07:58:16;18.33;;;10.73;;
65896;SDS011;52677;50.898;10.854;2023-02-14T08:00:17;21.75;;;11.23;;
65896;SDS011;52677;50.898;10.854;2023-02-14T08:02:18;18.35;;;11.30;;
65896;SDS011;52677;50.898;10.854;2023-02-14T08:04:19;21.10;;;12.63;;
65896;SDS011;52677;50.898;10.854;2023-02-14T08:06:20;16.95;;;10.82;;
65896;SDS011;52677;50.898;10.854;2023-02-14T08:08:24;21.05;;;12.82;;
65896;SDS011;52677;50.898;10.854;2023-02-14T08:10:26;18.63;;;11.35;;
65896;SDS011;52677;50.898;10.854;2023-02-14T08:12:26;19.58;;;11.23;;
65896;SDS011;52677;50.898;10.854;2023-02-14T08:14:45;19.88;;;12.02;;
65896;SDS011;52677;50.898;10.854;2023-02-14T08:16:46;19.42;;;11.98;;
65896;SDS011;52677;50.898;10.854;2023-02-14T08:18:46;21.88;;;10.10;;
65896;SDS011;52677;50.898;10.854;2023-02-14T08:20:46;19.58;;;10.77;;
65896;SDS011;52677;50.898;10.854;2023-02-14T08:22:50;23.15;;;12.38;;
65896;SDS011;52677;50.898;10.854;2023-02-14T08:27:28;23.40;;;12.30;;
65896;SDS011;52677;50.898;10.854;2023-02-14T08:29:28;24.15;;;12.18;;
65896;SDS011;52677;50.898;10.854;2023-02-14T08:31:29;21.23;;;12.02;;
65896;SDS011;52677;50.898;10.854;2023-02-14T08:33:30;23.20;;;13.40;;
65896;SDS011;52677;50.898;10.854;2023-02-14T08:35:31;28.65;;;16.33;;
65896;SDS011;52677;50.898;10.854;2023-02-14T08:37:32;23.48;;;13.57;;
65896;SDS011;52677;50.898;10.854;2023-02-14T08:39:32;26.20;;;14.93;;
65896;SDS011;52677;50.898;10.854;2023-02-14T08:41:32;22.77;;;13.10;;
65896;SDS011;52677;50.898;10.854;2023-02-14T08:43:33;27.70;;;15.50;;
65896;SDS011;52677;50.898;10.854;2023-02-14T08:45:33;32.50;;;18.88;;
65896;SDS011;52677;50.898;10.854;2023-02-14T08:47:35;32.35;;;17.65;;
65896;SDS011;52677;50.898;10.854;2023-02-14T08:49:37;26.10;;;14.43;;
65896;SDS011;52677;50.898;10.854;2023-02-14T08:51:37;26.20;;;14.50;;
65896;SDS011;52677;50.898;10.854;2023-02-14T08:53:38;25.00;;;12.98;;
65896;SDS011;52677;50.898;10.854;2023-02-14T08:55:39;28.10;;;14.32;;
65896;SDS011;52677;50.898;10.854;2023-02-14T08:57:39;27.20;;;13.45;;
65896;SDS011;52677;50.898;10.854;2023-02-14T08:59:40;22.95;;;12.93;;
65896;SDS011;52677;50.898;10.854;2023-02-14T09:01:40;21.67;;;11.85;;
65896;SDS011;52677;50.898;10.854;2023-02-14T09:03:41;26.45;;;14.32;;
65896;SDS011;52677;50.898;10.854;2023-02-14T09:05:41;27.42;;;14.32;;
65896;SDS011;52677;50.898;10.854;2023-02-14T09:07:42;23.73;;;13.38;;
65896;SDS011;52677;50.898;10.854;2023-02-14T09:09:42;22.13;;;12.40;;
65896;SDS011;52677;50.898;10.854;2023-02-14T09:11:42;20.38;;;12.60;;
65896;SDS011;52677;50.898;10.854;2023-02-14T09:13:43;24.35;;;12.48;;
65896;SDS011;52677;50.898;10.854;2023-02-14T09:15:44;24.67;;;11.90;;
65896;SDS011;52677;50.898;10.854;2023-02-14T09:17:45;24.98;;;12.60;;
65896;SDS011;52677;50.898;10.854;2023-02-14T09:19:45;22.20;;;12.40;;
65896;SDS011;52677;50.898;10.854;2023-02-14T09:21:46;21.63;;;10.63;;
65896;SDS011;52677;50.898;10.854;2023-02-14T09:23:46;20.17;;;10.95;;
65896;SDS011;52677;50.898;10.854;2023-02-14T09:25:46;22.98;;;10.88;;
65896;SDS011;52677;50.898;10.854;2023-02-14T09:27:47;19.13;;;11.45;;
65896;SDS011;52677;50.898;10.854;2023-02-14T09:29:47;22.00;;;11.80;;
65896;SDS011;52677;50.898;10.854;2023-02-14T09:31:48;20.98;;;11.32;;
65896;SDS011;52677;50.898;10.854;2023-02-14T09:33:51;21.92;;;11.23;;
65896;SDS011;52677;50.898;10.854;2023-02-14T09:36:10;22.42;;;11.27;;
65896;SDS011;52677;50.898;10.854;2023-02-14T09:38:19;19.42;;;11.02;;
65896;SDS011;52677;50.898;10.854;2023-02-14T09:40:19;23.23;;;11.65;;
65896;SDS011;52677;50.898;10.854;2023-02-14T09:42:38;21.48;;;10.95;;
65896;SDS011;52677;50.898;10.854;2023-02-14T09:44:53;24.33;;;11.20;;
65896;SDS011;52677;50.898;10.854;2023-02-14T09:49:31;28.85;;;14.32;;
65896;SDS011;52677;50.898;10.854;2023-02-14T09:51:34;29.73;;;14.25;;
65896;SDS011;52677;50.898;10.854;2023-02-14T09:53:42;24.90;;;13.50;;
65896;SDS011;52677;50.898;10.854;2023-02-14T09:55:46;19.70;;;11.43;;
65896;SDS011;52677;50.898;10.854;2023-02-14T10:00:19;21.98;;;12.10;;
65896;SDS011;52677;50.898;10.854;2023-02-14T10:02:32;26.13;;;12.93;;
65896;SDS011;52677;50.898;10.854;2023-02-14T10:04:41;26.30;;;13.77;;
65896;SDS011;52677;50.898;10.854;2023-02-14T10:09:35;24.33;;;13.88;;
65896;SDS011;52677;50.898;10.854;2023-02-14T10:11:39;23.20;;;13.35;;
65896;SDS011;52677;50.898;10.854;2023-02-14T10:13:48;22.90;;;12.05;;
65896;SDS011;52677;50.898;10.854;2023-02-14T10:15:57;25.13;;;13.75;;
65896;SDS011;52677;50.898;10.854;2023-02-14T10:18:04;24.48;;;13.50;;
65896;SDS011;52677;50.898;10.854;2023-02-14T10:22:48;22.25;;;12.65;;
65896;SDS011;52677;50.898;10.854;2023-02-14T10:25:41;20.23;;;12.55;;
65896;SDS011;52677;50.898;10.854;2023-02-14T10:27:32;21.67;;;12.18;;
65896;SDS011;52677;50.898;10.854;2023-02-14T10:29:34;24.55;;;12.85;;
65896;SDS011;52677;50.898;10.854;2023-02-14T10:33:41;21.80;;;11.48;;
65896;SDS011;52677;50.898;10.854;2023-02-14T10:35:52;21.90;;;10.85;;
65896;SDS011;52677;50.898;10.854;2023-02-14T10:38:34;19.00;;;11.00;;
65896;SDS011;52677;50.898;10.854;2023-02-14T10:43:38;19.33;;;11.02;;
65896;SDS011;52677;50.898;10.854;2023-02-14T10:45:52;19.75;;;11.20;;
65896;SDS011;52677;50.898;10.854;2023-02-14T10:47:58;22.95;;;12.60;;
65896;SDS011;52677;50.898;10.854;2023-02-14T10:50:17;19.73;;;11.48;;
65896;SDS011;52677;50.898;10.854;2023-02-14T10:54:53;23.10;;;13.05;;
65896;SDS011;52677;50.898;10.854;2023-02-14T10:57:03;24.60;;;13.43;;
65896;SDS011;52677;50.898;10.854;2023-02-14T10:59:18;23.77;;;13.48;;
65896;SDS011;52677;50.898;10.854;2023-02-14T11:01:23;23.85;;;11.60;;
65896;SDS011;52677;50.898;10.854;2023-02-14T11:03:23;23.63;;;12.93;;
65896;SDS011;52677;50.898;10.854;2023-02-14T11:05:30;24.00;;;11.98;;
65896;SDS011;52677;50.898;10.854;2023-02-14T11:07:34;22.75;;;12.07;;
65896;SDS011;52677;50.898;10.854;2023-02-14T11:09:35;24.10;;;13.15;;
65896;SDS011;52677;50.898;10.854;2023-02-14T11:11:36;23.25;;;13.07;;
65896;SDS011;52677;50.898;10.854;2023-02-14T11:13:42;22.20;;;11.93;;
65896;SDS011;52677;50.898;10.854;2023-02-14T11:15:43;21.65;;;12.45;;
65896;SDS011;52677;50.898;10.854;2023-02-14T11:17:45;23.97;;;12.80;;
65896;SDS011;52677;50.898;10.854;2023-02-14T11:19:55;23.98;;;14.50;;
65896;SDS011;52677;50.898;10.854;2023-02-14T11:22:01;25.30;;;13.48;;
65896;SDS011;52677;50.898;10.854;2023-02-14T11:24:01;25.35;;;13.85;;
65896;SDS011;52677;50.898;10.854;2023-02-14T11:26:34;25.58;;;13.32;;
65896;SDS011;52677;50.898;10.854;2023-02-14T11:28:34;22.15;;;13.60;;
65896;SDS011;52677;50.898;10.854;2023-02-14T11:30:40;24.20;;;13.93;;
65896;SDS011;52677;50.898;10.854;2023-02-14T11:32:44;22.15;;;13.43;;
65896;SDS011;52677;50.898;10.854;2023-02-14T11:34:54;20.88;;;12.48;;
65896;SDS011;52677;50.898;10.854;2023-02-14T11:36:59;21.95;;;13.10;;
65896;SDS011;52677;50.898;10.854;2023-02-14T11:39:15;23.77;;;12.93;;
65896;SDS011;52677;50.898;10.854;2023-02-14T11:41:24;21.20;;;12.27;;
65896;SDS011;52677;50.898;10.854;2023-02-14T11:43:34;23.48;;;13.07;;
65896;SDS011;52677;50.898;10.854;2023-02-14T11:45:43;19.27;;;11.77;;
65896;SDS011;52677;50.898;10.854;2023-02-14T11:47:46;20.85;;;11.90;;
65896;SDS011;52677;50.898;10.854;2023-02-14T11:49:52;17.02;;;10.40;;
65896;SDS011;52677;50.898;10.854;2023-02-14T11:51:58;21.10;;;11.02;;
65896;SDS011;52677;50.898;10.854;2023-02-14T11:54:10;19.08;;;10.50;;
65896;SDS011;52677;50.898;10.854;2023-02-14T11:56:25;18.58;;;10.27;;
65896;SDS011;52677;50.898;10.854;2023-02-14T12:00:51;17.00;;;10.18;;
65896;SDS011;52677;50.898;10.854;2023-02-14T12:02:52;19.90;;;11.65;;
65896;SDS011;52677;50.898;10.854;2023-02-14T12:04:55;18.30;;;10.77;;
65896;SDS011;52677;50.898;10.854;2023-02-14T12:11:24;19.13;;;11.13;;
65896;SDS011;52677;50.898;10.854;2023-02-14T12:13:24;17.52;;;10.32;;
65896;SDS011;52677;50.898;10.854;2023-02-14T12:15:26;19.65;;;11.23;;
65896;SDS011;52677;50.898;10.854;2023-02-14T12:17:37;14.48;;;9.15;;
65896;SDS011;52677;50.898;10.854;2023-02-14T12:19:49;17.98;;;10.18;;
65896;SDS011;52677;50.898;10.854;2023-02-14T12:21:55;19.13;;;11.50;;
65896;SDS011;52677;50.898;10.854;2023-02-14T12:24:02;18.30;;;11.57;;
65896;SDS011;52677;50.898;10.854;2023-02-14T12:26:13;15.70;;;10.93;;
65896;SDS011;52677;50.898;10.854;2023-02-14T12:28:27;17.58;;;10.65;;
65896;SDS011;52677;50.898;10.854;2023-02-14T12:30:37;20.02;;;10.55;;
65896;SDS011;52677;50.898;10.854;2023-02-14T12:32:37;18.27;;;11.05;;
65896;SDS011;52677;50.898;10.854;2023-02-14T12:34:46;17.23;;;10.63;;
65896;SDS011;52677;50.898;10.854;2023-02-14T12:45:58;15.32;;;9.75;;
65896;SDS011;52677;50.898;10.854;2023-02-14T12:50:20;16.40;;;11.02;;
65896;SDS011;52677;50.898;10.854;2023-02-14T12:57:18;17.30;;;11.90;;
65896;SDS011;52677;50.898;10.854;2023-02-14T13:04:52;15.35;;;9.57;;
65896;SDS011;52677;50.898;10.854;2023-02-14T13:16:07;16.52;;;9.63;;
65896;SDS011;52677;50.898;10.854;2023-02-14T13:18:12;14.10;;;9.90;;
65896;SDS011;52677;50.898;10.854;2023-02-14T13:22:24;14.13;;;9.23;;
65896;SDS011;52677;50.898;10.854;2023-02-14T13:24:28;17.92;;;10.82;;
65896;SDS011;52677;50.898;10.854;2023-02-14T13:26:38;17.40;;;10.60;;
65896;SDS011;52677;50.898;10.854;2023-02-14T13:28:54;15.98;;;10.05;;
65896;SDS011;52677;50.898;10.854;2023-02-14T13:30:57;14.73;;;9.00;;
65896;SDS011;52677;50.898;10.854;2023-02-14T13:33:02;17.23;;;9.82;;
65896;SDS011;52677;50.898;10.854;2023-02-14T13:35:07;15.55;;;9.13;;
65896;SDS011;52677;50.898;10.854;2023-02-14T13:37:16;15.85;;;9.07;;
65896;SDS011;52677;50.898;10.854;2023-02-14T13:39:40;13.60;;;8.65;;
65896;SDS011;52677;50.898;10.854;2023-02-14T13:41:42;13.43;;;8.50;;
65896;SDS011;52677;50.898;10.854;2023-02-14T13:43:43;13.35;;;8.63;;